sensor_id;sensor_type;location;lat;lon;timestamp;pressure;altitude;pressure_sealevel;temperature;humidity
23361;BME280;11852;50.082;18.554;2023-09-30T00:00:08;98909.0;;;17.28;68.44
23361;BME280;11852;50.082;18.554;2023-09-30T00:01:14;98907.0;;;17.26;68.61
23361;BME280;11852;50.082;18.554;2023-09-30T00:02:19;98907.99;;;17.28;68.57
23361;BME280;11852;50.082;18.554;2023-09-30T00:03:24;98911.5;;;17.32;68.49
23361;BME280;11852;50.082;18.554;2023-09-30T00:04:29;98907.99;;;17.26;68.64
23361;BME280;11852;50.082;18.554;2023-09-30T00:05:34;98908.5;;;17.36;68.29
23361;BME280;11852;50.082;18.554;2023-09-30T00:06:51;98910.0;;;17.36;68.27
23361;BME280;11852;50.082;18.554;2023-09-30T00:07:56;98906.99;;;17.22;68.67
23361;BME280;11852;50.082;18.554;2023-09-30T00:09:01;98907.49;;;17.23;68.63
23361;BME280;11852;50.082;18.554;2023-09-30T00:10:06;98905.5;;;17.3;68.42
23361;BME280;11852;50.082;18.554;2023-09-30T00:11:11;98905.0;;;17.34;68.29
23361;BME280;11852;50.082;18.554;2023-09-30T00:12:20;98906.5;;;17.3;68.49
23361;BME280;11852;50.082;18.554;2023-09-30T00:13:25;98905.0;;;17.17;68.85
23361;BME280;11852;50.082;18.554;2023-09-30T00:14:30;98905.5;;;17.15;68.71
23361;BME280;11852;50.082;18.554;2023-09-30T00:15:35;98907.5;;;17.23;68.47
23361;BME280;11852;50.082;18.554;2023-09-30T00:16:40;98907.99;;;17.27;68.32
23361;BME280;11852;50.082;18.554;2023-09-30T00:18:04;98906.0;;;17.29;68.35
23361;BME280;11852;50.082;18.554;2023-09-30T00:19:08;98904.5;;;17.25;68.57
23361;BME280;11852;50.082;18.554;2023-09-30T00:20:13;98905.5;;;17.27;68.5
23361;BME280;11852;50.082;18.554;2023-09-30T00:21:18;98904.51;;;17.33;68.33
23361;BME280;11852;50.082;18.554;2023-09-30T00:22:23;98905.0;;;17.33;68.3
23361;BME280;11852;50.082;18.554;2023-09-30T00:23:31;98905.5;;;17.33;68.3
23361;BME280;11852;50.082;18.554;2023-09-30T00:24:36;98906.5;;;17.28;68.39
23361;BME280;11852;50.082;18.554;2023-09-30T00:25:41;98904.5;;;17.24;68.52
23361;BME280;11852;50.082;18.554;2023-09-30T00:26:46;98904.0;;;17.31;68.3
23361;BME280;11852;50.082;18.554;2023-09-30T00:27:51;98903.5;;;17.28;68.46
23361;BME280;11852;50.082;18.554;2023-09-30T00:29:04;98900.5;;;17.29;68.39
23361;BME280;11852;50.082;18.554;2023-09-30T00:30:09;98899.5;;;17.28;68.3
23361;BME280;11852;50.082;18.554;2023-09-30T00:31:14;98899.5;;;17.26;68.33
23361;BME280;11852;50.082;18.554;2023-09-30T00:32:19;98894.5;;;17.19;68.68
23361;BME280;11852;50.082;18.554;2023-09-30T00:33:24;98898.5;;;17.11;68.95
23361;BME280;11852;50.082;18.554;2023-09-30T00:34:34;98894.5;;;17.13;68.81
23361;BME280;11852;50.082;18.554;2023-09-30T00:35:38;98896.0;;;17.19;68.6
23361;BME280;11852;50.082;18.554;2023-09-30T00:36:43;98893.5;;;17.19;68.51
23361;BME280;11852;50.082;18.554;2023-09-30T00:37:48;98892.5;;;17.15;68.75
23361;BME280;11852;50.082;18.554;2023-09-30T00:38:53;98893.01;;;17.1;68.9
23361;BME280;11852;50.082;18.554;2023-09-30T00:39:58;98890.5;;;17.13;68.76
23361;BME280;11852;50.082;18.554;2023-09-30T00:41:03;98890.5;;;17.06;68.99
23361;BME280;11852;50.082;18.554;2023-09-30T00:42:09;98889.5;;;17.03;69.04
23361;BME280;11852;50.082;18.554;2023-09-30T00:43:19;98888.0;;;17.09;68.82
23361;BME280;11852;50.082;18.554;2023-09-30T00:44:24;98888.5;;;17.08;68.71
23361;BME280;11852;50.082;18.554;2023-09-30T00:45:30;98887.0;;;17.19;68.67
23361;BME280;11852;50.082;18.554;2023-09-30T00:46:37;98885.0;;;17.22;68.63
23361;BME280;11852;50.082;18.554;2023-09-30T00:47:39;98885.5;;;17.18;68.62
23361;BME280;11852;50.082;18.554;2023-09-30T00:48:44;98886.5;;;17.22;68.51
23361;BME280;11852;50.082;18.554;2023-09-30T00:49:51;98887.0;;;17.19;68.6
23361;BME280;11852;50.082;18.554;2023-09-30T00:50:58;98888.5;;;17.13;68.74
23361;BME280;11852;50.082;18.554;2023-09-30T00:52:03;98886.0;;;17.08;68.91
23361;BME280;11852;50.082;18.554;2023-09-30T00:53:08;98888.5;;;17.17;68.57
23361;BME280;11852;50.082;18.554;2023-09-30T00:54:13;98886.5;;;17.2;68.44
23361;BME280;11852;50.082;18.554;2023-09-30T00:55:18;98885.5;;;17.24;68.43
23361;BME280;11852;50.082;18.554;2023-09-30T00:56:23;98887.0;;;17.23;68.51
23361;BME280;11852;50.082;18.554;2023-09-30T00:57:28;98886.5;;;17.19;68.45
23361;BME280;11852;50.082;18.554;2023-09-30T00:58:32;98888.0;;;17.24;68.44
23361;BME280;11852;50.082;18.554;2023-09-30T00:59:37;98883.5;;;17.2;68.51
23361;BME280;11852;50.082;18.554;2023-09-30T01:00:42;98888.5;;;17.05;68.92
23361;BME280;11852;50.082;18.554;2023-09-30T01:01:47;98886.5;;;17.11;68.68
23361;BME280;11852;50.082;18.554;2023-09-30T01:02:52;98886.5;;;17.2;68.45
23361;BME280;11852;50.082;18.554;2023-09-30T01:03:57;98886.0;;;17.19;68.54
23361;BME280;11852;50.082;18.554;2023-09-30T01:05:02;98888.5;;;17.17;68.6
23361;BME280;11852;50.082;18.554;2023-09-30T01:06:07;98890.5;;;17.24;68.28
23361;BME280;11852;50.082;18.554;2023-09-30T01:07:22;98894.0;;;17.25;68.21
23361;BME280;11852;50.082;18.554;2023-09-30T01:08:27;98894.5;;;17.26;68.2
23361;BME280;11852;50.082;18.554;2023-09-30T01:09:32;98893.5;;;17.21;68.4
23361;BME280;11852;50.082;18.554;2023-09-30T01:10:37;98893.5;;;17.22;68.28
23361;BME280;11852;50.082;18.554;2023-09-30T01:11:41;98897.0;;;17.33;67.89
23361;BME280;11852;50.082;18.554;2023-09-30T01:12:47;98895.0;;;17.15;68.35
23361;BME280;11852;50.082;18.554;2023-09-30T01:13:52;98895.49;;;17.12;68.35
23361;BME280;11852;50.082;18.554;2023-09-30T01:14:58;98892.51;;;17.18;68.22
23361;BME280;11852;50.082;18.554;2023-09-30T01:16:05;98894.0;;;17.17;68.4
23361;BME280;11852;50.082;18.554;2023-09-30T01:17:10;98893.01;;;17.2;68.2
23361;BME280;11852;50.082;18.554;2023-09-30T01:18:15;98891.5;;;17.15;68.43
23361;BME280;11852;50.082;18.554;2023-09-30T01:19:20;98893.5;;;17.19;68.35
23361;BME280;11852;50.082;18.554;2023-09-30T01:20:24;98895.0;;;17.13;68.59
23361;BME280;11852;50.082;18.554;2023-09-30T01:21:33;98894.0;;;17.1;68.6
23361;BME280;11852;50.082;18.554;2023-09-30T01:22:35;98892.0;;;17.13;68.51
23361;BME280;11852;50.082;18.554;2023-09-30T01:23:40;98892.5;;;17.07;68.71
23361;BME280;11852;50.082;18.554;2023-09-30T01:24:45;98887.5;;;17.15;68.38
23361;BME280;11852;50.082;18.554;2023-09-30T01:25:50;98886.5;;;17.19;68.17
23361;BME280;11852;50.082;18.554;2023-09-30T01:26:57;98888.5;;;17.15;68.46
23361;BME280;11852;50.082;18.554;2023-09-30T01:28:02;98887.0;;;17.17;68.31
23361;BME280;11852;50.082;18.554;2023-09-30T01:29:08;98885.5;;;17.13;68.53
23361;BME280;11852;50.082;18.554;2023-09-30T01:30:12;98889.0;;;17.2;68.14
23361;BME280;11852;50.082;18.554;2023-09-30T01:31:17;98890.0;;;17.07;68.56
23361;BME280;11852;50.082;18.554;2023-09-30T01:32:22;98889.5;;;17.13;68.34
23361;BME280;11852;50.082;18.554;2023-09-30T01:33:29;98891.0;;;17.14;68.27
23361;BME280;11852;50.082;18.554;2023-09-30T01:34:34;98892.01;;;17.15;68.25
23361;BME280;11852;50.082;18.554;2023-09-30T01:35:39;98897.5;;;17.13;68.38
23361;BME280;11852;50.082;18.554;2023-09-30T01:36:44;98896.0;;;17.28;67.82
23361;BME280;11852;50.082;18.554;2023-09-30T01:37:49;98893.5;;;17.2;68.1
23361;BME280;11852;50.082;18.554;2023-09-30T01:38:57;98894.0;;;17.27;67.96
23361;BME280;11852;50.082;18.554;2023-09-30T01:40:02;98891.5;;;17.19;68.18
23361;BME280;11852;50.082;18.554;2023-09-30T01:41:07;98894.0;;;17.18;67.97
23361;BME280;11852;50.082;18.554;2023-09-30T01:42:12;98893.5;;;17.17;68.21
23361;BME280;11852;50.082;18.554;2023-09-30T01:43:17;98894.5;;;17.31;67.82
23361;BME280;11852;50.082;18.554;2023-09-30T01:44:22;98890.5;;;17.33;67.89
23361;BME280;11852;50.082;18.554;2023-09-30T01:45:27;98890.5;;;17.31;67.79
23361;BME280;11852;50.082;18.554;2023-09-30T01:46:32;98890.0;;;17.39;67.6
23361;BME280;11852;50.082;18.554;2023-09-30T01:47:37;98890.0;;;17.36;67.57
23361;BME280;11852;50.082;18.554;2023-09-30T01:48:42;98891.0;;;17.39;67.57
23361;BME280;11852;50.082;18.554;2023-09-30T01:49:50;98889.0;;;17.37;67.59
23361;BME280;11852;50.082;18.554;2023-09-30T01:50:55;98893.0;;;17.42;67.53
23361;BME280;11852;50.082;18.554;2023-09-30T01:52:00;98892.5;;;17.39;67.55
23361;BME280;11852;50.082;18.554;2023-09-30T01:53:05;98891.0;;;17.42;67.45
23361;BME280;11852;50.082;18.554;2023-09-30T01:54:10;98892.5;;;17.49;67.22
23361;BME280;11852;50.082;18.554;2023-09-30T01:55:18;98891.5;;;17.46;67.43
23361;BME280;11852;50.082;18.554;2023-09-30T01:56:23;98890.5;;;17.4;67.52
23361;BME280;11852;50.082;18.554;2023-09-30T01:57:28;98888.0;;;17.49;67.29
23361;BME280;11852;50.082;18.554;2023-09-30T01:58:33;98887.0;;;17.47;67.46
23361;BME280;11852;50.082;18.554;2023-09-30T01:59:38;98888.0;;;17.48;67.55
23361;BME280;11852;50.082;18.554;2023-09-30T02:00:44;98887.0;;;17.4;68.27
23361;BME280;11852;50.082;18.554;2023-09-30T02:01:49;98883.5;;;17.33;68.49
23361;BME280;11852;50.082;18.554;2023-09-30T02:02:54;98881.99;;;17.42;68.31
23361;BME280;11852;50.082;18.554;2023-09-30T02:03:59;98880.5;;;17.42;68.54
23361;BME280;11852;50.082;18.554;2023-09-30T02:05:04;98876.5;;;17.38;68.88
23361;BME280;11852;50.082;18.554;2023-09-30T02:06:09;98879.0;;;17.42;68.89
23361;BME280;11852;50.082;18.554;2023-09-30T02:07:14;98877.0;;;17.4;68.94
23361;BME280;11852;50.082;18.554;2023-09-30T02:08:19;98872.5;;;17.34;69.21
23361;BME280;11852;50.082;18.554;2023-09-30T02:09:24;98872.5;;;17.45;68.96
23361;BME280;11852;50.082;18.554;2023-09-30T02:10:29;98872.0;;;17.41;69.29
23361;BME280;11852;50.082;18.554;2023-09-30T02:11:34;98868.0;;;17.48;69.03
23361;BME280;11852;50.082;18.554;2023-09-30T02:12:39;98869.0;;;17.43;69.05
23361;BME280;11852;50.082;18.554;2023-09-30T02:13:44;98867.5;;;17.38;68.96
23361;BME280;11852;50.082;18.554;2023-09-30T02:14:48;98869.49;;;17.43;68.51
23361;BME280;11852;50.082;18.554;2023-09-30T02:15:53;98865.5;;;17.49;68.12
23361;BME280;11852;50.082;18.554;2023-09-30T02:16:58;98866.0;;;17.46;68.45
23361;BME280;11852;50.082;18.554;2023-09-30T02:18:04;98868.5;;;17.43;68.72
23361;BME280;11852;50.082;18.554;2023-09-30T02:19:09;98869.0;;;17.51;68.63
23361;BME280;11852;50.082;18.554;2023-09-30T02:20:14;98871.0;;;17.56;68.29
23361;BME280;11852;50.082;18.554;2023-09-30T02:21:20;98869.5;;;17.61;68.31
23361;BME280;11852;50.082;18.554;2023-09-30T02:22:25;98869.49;;;17.48;68.81
23361;BME280;11852;50.082;18.554;2023-09-30T02:23:31;98871.0;;;17.57;68.4
23361;BME280;11852;50.082;18.554;2023-09-30T02:24:36;98874.0;;;17.51;68.29
23361;BME280;11852;50.082;18.554;2023-09-30T02:25:41;98875.5;;;17.44;68.64
23361;BME280;11852;50.082;18.554;2023-09-30T02:26:46;98877.5;;;17.58;68.18
23361;BME280;11852;50.082;18.554;2023-09-30T02:27:51;98881.99;;;17.66;68.01
23361;BME280;11852;50.082;18.554;2023-09-30T02:29:10;98884.5;;;17.67;67.96
23361;BME280;11852;50.082;18.554;2023-09-30T02:30:16;98885.0;;;17.69;67.91
23361;BME280;11852;50.082;18.554;2023-09-30T02:31:20;98885.5;;;17.69;68.1
23361;BME280;11852;50.082;18.554;2023-09-30T02:32:25;98885.0;;;17.73;67.99
23361;BME280;11852;50.082;18.554;2023-09-30T02:33:30;98885.0;;;17.58;68.25
23361;BME280;11852;50.082;18.554;2023-09-30T02:34:54;98883.5;;;17.62;68.18
23361;BME280;11852;50.082;18.554;2023-09-30T02:35:59;98884.0;;;17.72;67.81
23361;BME280;11852;50.082;18.554;2023-09-30T02:37:04;98884.5;;;17.78;67.65
23361;BME280;11852;50.082;18.554;2023-09-30T02:38:09;98882.99;;;17.83;67.53
23361;BME280;11852;50.082;18.554;2023-09-30T02:39:14;98882.5;;;17.79;67.73
23361;BME280;11852;50.082;18.554;2023-09-30T02:40:20;98880.0;;;17.75;67.86
23361;BME280;11852;50.082;18.554;2023-09-30T02:41:25;98880.01;;;17.74;67.82
23361;BME280;11852;50.082;18.554;2023-09-30T02:42:30;98882.5;;;17.79;67.63
23361;BME280;11852;50.082;18.554;2023-09-30T02:43:35;98881.99;;;17.71;67.9
23361;BME280;11852;50.082;18.554;2023-09-30T02:44:40;98884.0;;;17.68;68.1
23361;BME280;11852;50.082;18.554;2023-09-30T02:45:45;98884.0;;;17.74;68.0
23361;BME280;11852;50.082;18.554;2023-09-30T02:46:50;98885.0;;;17.72;67.84
23361;BME280;11852;50.082;18.554;2023-09-30T02:47:54;98883.5;;;17.76;67.75
23361;BME280;11852;50.082;18.554;2023-09-30T02:49:02;98881.5;;;17.77;67.61
23361;BME280;11852;50.082;18.554;2023-09-30T02:50:12;98880.5;;;17.78;67.46
23361;BME280;11852;50.082;18.554;2023-09-30T02:51:18;98879.5;;;17.68;67.82
23361;BME280;11852;50.082;18.554;2023-09-30T02:52:23;98880.0;;;17.73;67.54
23361;BME280;11852;50.082;18.554;2023-09-30T02:53:27;98881.99;;;17.76;67.33
23361;BME280;11852;50.082;18.554;2023-09-30T02:54:33;98885.5;;;17.91;67.08
23361;BME280;11852;50.082;18.554;2023-09-30T02:55:41;98885.0;;;17.85;67.35
23361;BME280;11852;50.082;18.554;2023-09-30T02:56:43;98880.0;;;17.84;67.75
23361;BME280;11852;50.082;18.554;2023-09-30T02:57:48;98880.01;;;17.78;68.27
23361;BME280;11852;50.082;18.554;2023-09-30T02:58:53;98877.0;;;17.77;68.12
23361;BME280;11852;50.082;18.554;2023-09-30T02:59:58;98879.0;;;17.85;67.94
23361;BME280;11852;50.082;18.554;2023-09-30T03:01:17;98881.99;;;17.85;67.92
23361;BME280;11852;50.082;18.554;2023-09-30T03:02:22;98884.0;;;17.85;68.31
23361;BME280;11852;50.082;18.554;2023-09-30T03:03:27;98883.0;;;17.88;68.26
23361;BME280;11852;50.082;18.554;2023-09-30T03:04:32;98884.0;;;17.91;68.1
23361;BME280;11852;50.082;18.554;2023-09-30T03:05:38;98886.0;;;17.95;68.1
23361;BME280;11852;50.082;18.554;2023-09-30T03:06:45;98884.0;;;17.81;68.25
23361;BME280;11852;50.082;18.554;2023-09-30T03:07:49;98882.5;;;17.84;68.15
23361;BME280;11852;50.082;18.554;2023-09-30T03:08:54;98877.5;;;17.8;68.29
23361;BME280;11852;50.082;18.554;2023-09-30T03:09:59;98881.49;;;17.77;68.43
23361;BME280;11852;50.082;18.554;2023-09-30T03:11:04;98881.99;;;17.81;68.21
23361;BME280;11852;50.082;18.554;2023-09-30T03:12:10;98884.5;;;17.78;67.91
23361;BME280;11852;50.082;18.554;2023-09-30T03:13:14;98882.5;;;17.85;67.69
23361;BME280;11852;50.082;18.554;2023-09-30T03:14:19;98884.0;;;17.92;67.57
23361;BME280;11852;50.082;18.554;2023-09-30T03:15:24;98883.5;;;17.95;67.72
23361;BME280;11852;50.082;18.554;2023-09-30T03:16:29;98885.5;;;17.88;67.92
23361;BME280;11852;50.082;18.554;2023-09-30T03:17:33;98882.99;;;17.92;67.71
23361;BME280;11852;50.082;18.554;2023-09-30T03:18:39;98883.5;;;17.93;67.74
23361;BME280;11852;50.082;18.554;2023-09-30T03:19:43;98883.5;;;17.92;67.89
23361;BME280;11852;50.082;18.554;2023-09-30T03:20:48;98882.99;;;17.97;67.75
23361;BME280;11852;50.082;18.554;2023-09-30T03:21:53;98882.49;;;18.0;68.15
23361;BME280;11852;50.082;18.554;2023-09-30T03:22:58;98885.5;;;17.99;68.22
23361;BME280;11852;50.082;18.554;2023-09-30T03:24:03;98887.5;;;17.98;68.26
23361;BME280;11852;50.082;18.554;2023-09-30T03:25:09;98889.0;;;17.98;68.19
23361;BME280;11852;50.082;18.554;2023-09-30T03:26:13;98889.0;;;17.98;68.48
23361;BME280;11852;50.082;18.554;2023-09-30T03:27:18;98891.5;;;17.97;68.88
23361;BME280;11852;50.082;18.554;2023-09-30T03:28:28;98889.0;;;17.98;69.03
23361;BME280;11852;50.082;18.554;2023-09-30T03:29:35;98891.0;;;17.94;69.13
23361;BME280;11852;50.082;18.554;2023-09-30T03:30:38;98888.0;;;17.96;69.37
23361;BME280;11852;50.082;18.554;2023-09-30T03:31:43;98889.5;;;17.98;69.4
23361;BME280;11852;50.082;18.554;2023-09-30T03:32:48;98893.0;;;17.92;69.57
23361;BME280;11852;50.082;18.554;2023-09-30T03:34:02;98894.5;;;17.92;70.36
23361;BME280;11852;50.082;18.554;2023-09-30T03:35:07;98894.0;;;17.97;70.65
23361;BME280;11852;50.082;18.554;2023-09-30T03:36:12;98895.0;;;17.97;70.81
23361;BME280;11852;50.082;18.554;2023-09-30T03:37:17;98893.5;;;17.92;70.97
23361;BME280;11852;50.082;18.554;2023-09-30T03:38:22;98897.5;;;17.92;71.11
23361;BME280;11852;50.082;18.554;2023-09-30T03:39:56;98897.5;;;17.93;71.27
23361;BME280;11852;50.082;18.554;2023-09-30T03:41:01;98896.5;;;18.05;71.11
23361;BME280;11852;50.082;18.554;2023-09-30T03:42:06;98897.5;;;18.03;71.12
23361;BME280;11852;50.082;18.554;2023-09-30T03:43:10;98898.5;;;18.05;71.01
23361;BME280;11852;50.082;18.554;2023-09-30T03:44:15;98898.0;;;17.99;71.06
23361;BME280;11852;50.082;18.554;2023-09-30T03:45:32;98899.5;;;17.99;71.15
23361;BME280;11852;50.082;18.554;2023-09-30T03:46:37;98898.5;;;18.06;70.89
23361;BME280;11852;50.082;18.554;2023-09-30T03:47:42;98902.0;;;18.03;71.03
23361;BME280;11852;50.082;18.554;2023-09-30T03:48:47;98902.0;;;18.04;71.0
23361;BME280;11852;50.082;18.554;2023-09-30T03:49:52;98904.5;;;18.08;71.02
23361;BME280;11852;50.082;18.554;2023-09-30T03:50:57;98907.5;;;18.05;71.23
23361;BME280;11852;50.082;18.554;2023-09-30T03:52:02;98909.5;;;18.08;71.46
23361;BME280;11852;50.082;18.554;2023-09-30T03:53:07;98907.99;;;18.06;71.49
23361;BME280;11852;50.082;18.554;2023-09-30T03:54:12;98904.5;;;17.99;71.65
23361;BME280;11852;50.082;18.554;2023-09-30T03:55:20;98903.0;;;17.92;71.81
23361;BME280;11852;50.082;18.554;2023-09-30T03:56:26;98904.0;;;17.92;72.08
23361;BME280;11852;50.082;18.554;2023-09-30T03:57:31;98905.5;;;17.91;72.38
23361;BME280;11852;50.082;18.554;2023-09-30T03:58:36;98903.0;;;17.97;72.25
23361;BME280;11852;50.082;18.554;2023-09-30T03:59:41;98904.5;;;17.99;72.43
23361;BME280;11852;50.082;18.554;2023-09-30T04:00:46;98904.5;;;17.92;72.79
23361;BME280;11852;50.082;18.554;2023-09-30T04:01:59;98906.5;;;17.92;72.57
23361;BME280;11852;50.082;18.554;2023-09-30T04:03:04;98904.5;;;18.06;72.58
23361;BME280;11852;50.082;18.554;2023-09-30T04:04:11;98907.49;;;18.12;72.68
23361;BME280;11852;50.082;18.554;2023-09-30T04:05:20;98907.0;;;18.16;72.56
23361;BME280;11852;50.082;18.554;2023-09-30T04:06:24;98910.0;;;18.17;72.37
23361;BME280;11852;50.082;18.554;2023-09-30T04:07:29;98907.99;;;18.17;71.71
23361;BME280;11852;50.082;18.554;2023-09-30T04:08:34;98909.5;;;18.17;71.71
23361;BME280;11852;50.082;18.554;2023-09-30T04:09:39;98907.0;;;18.17;72.08
23361;BME280;11852;50.082;18.554;2023-09-30T04:10:42;98907.0;;;18.17;72.08
23361;BME280;11852;50.082;18.554;2023-09-30T04:11:45;98907.0;;;18.17;72.08
23361;BME280;11852;50.082;18.554;2023-09-30T04:12:53;98908.5;;;18.19;72.32
23361;BME280;11852;50.082;18.554;2023-09-30T04:13:58;98912.5;;;18.13;72.47
23361;BME280;11852;50.082;18.554;2023-09-30T04:15:06;98914.0;;;18.16;72.65
23361;BME280;11852;50.082;18.554;2023-09-30T04:16:11;98914.5;;;18.07;73.1
23361;BME280;11852;50.082;18.554;2023-09-30T04:17:16;98915.0;;;18.12;73.15
23361;BME280;11852;50.082;18.554;2023-09-30T04:18:31;98916.0;;;18.13;73.12
23361;BME280;11852;50.082;18.554;2023-09-30T04:19:36;98919.0;;;18.13;73.07
23361;BME280;11852;50.082;18.554;2023-09-30T04:20:42;98918.5;;;18.13;73.41
23361;BME280;11852;50.082;18.554;2023-09-30T04:21:47;98917.0;;;18.08;73.49
23361;BME280;11852;50.082;18.554;2023-09-30T04:22:52;98915.5;;;18.07;73.63
23361;BME280;11852;50.082;18.554;2023-09-30T04:24:01;98920.5;;;18.07;73.75
23361;BME280;11852;50.082;18.554;2023-09-30T04:25:10;98920.5;;;18.08;73.68
23361;BME280;11852;50.082;18.554;2023-09-30T04:26:15;98919.0;;;18.1;73.72
23361;BME280;11852;50.082;18.554;2023-09-30T04:27:20;98922.5;;;18.08;73.79
23361;BME280;11852;50.082;18.554;2023-09-30T04:28:25;98923.5;;;18.06;73.75
23361;BME280;11852;50.082;18.554;2023-09-30T04:29:58;98923.5;;;18.06;73.69
23361;BME280;11852;50.082;18.554;2023-09-30T04:31:03;98920.5;;;17.83;74.37
23361;BME280;11852;50.082;18.554;2023-09-30T04:32:08;98918.51;;;17.79;74.52
23361;BME280;11852;50.082;18.554;2023-09-30T04:33:13;98920.5;;;17.83;74.27
23361;BME280;11852;50.082;18.554;2023-09-30T04:34:18;98914.5;;;17.86;74.12
23361;BME280;11852;50.082;18.554;2023-09-30T04:35:24;98912.5;;;17.9;74.01
23361;BME280;11852;50.082;18.554;2023-09-30T04:36:29;98911.5;;;17.91;73.97
23361;BME280;11852;50.082;18.554;2023-09-30T04:37:34;98910.5;;;17.85;74.18
23361;BME280;11852;50.082;18.554;2023-09-30T04:38:39;98914.5;;;17.83;74.13
23361;BME280;11852;50.082;18.554;2023-09-30T04:39:44;98910.0;;;17.75;74.43
23361;BME280;11852;50.082;18.554;2023-09-30T04:40:54;98911.0;;;17.75;74.24
23361;BME280;11852;50.082;18.554;2023-09-30T04:41:59;98910.0;;;17.84;73.96
23361;BME280;11852;50.082;18.554;2023-09-30T04:43:04;98909.5;;;17.85;73.95
23361;BME280;11852;50.082;18.554;2023-09-30T04:44:11;98908.5;;;17.87;74.0
23361;BME280;11852;50.082;18.554;2023-09-30T04:45:21;98908.5;;;17.88;74.07
23361;BME280;11852;50.082;18.554;2023-09-30T04:46:41;98913.0;;;17.88;74.01
23361;BME280;11852;50.082;18.554;2023-09-30T04:47:46;98917.51;;;17.79;74.24
23361;BME280;11852;50.082;18.554;2023-09-30T04:48:51;98916.0;;;17.73;74.36
23361;BME280;11852;50.082;18.554;2023-09-30T04:49:55;98918.5;;;17.81;74.04
23361;BME280;11852;50.082;18.554;2023-09-30T04:51:00;98920.5;;;17.73;74.21
23361;BME280;11852;50.082;18.554;2023-09-30T04:52:05;98923.0;;;17.67;74.22
23361;BME280;11852;50.082;18.554;2023-09-30T04:53:10;98923.5;;;17.69;74.15
23361;BME280;11852;50.082;18.554;2023-09-30T04:54:15;98925.0;;;17.59;74.46
23361;BME280;11852;50.082;18.554;2023-09-30T04:55:20;98928.5;;;17.63;74.21
23361;BME280;11852;50.082;18.554;2023-09-30T04:56:27;98929.0;;;17.64;74.25
23361;BME280;11852;50.082;18.554;2023-09-30T04:57:32;98931.5;;;17.72;73.93
23361;BME280;11852;50.082;18.554;2023-09-30T04:58:37;98931.99;;;17.72;74.05
23361;BME280;11852;50.082;18.554;2023-09-30T04:59:42;98932.0;;;17.59;74.63
23361;BME280;11852;50.082;18.554;2023-09-30T05:00:48;98932.49;;;17.7;74.26
23361;BME280;11852;50.082;18.554;2023-09-30T05:01:55;98934.5;;;17.7;74.32
23361;BME280;11852;50.082;18.554;2023-09-30T05:03:00;98934.0;;;17.72;74.19
23361;BME280;11852;50.082;18.554;2023-09-30T05:04:06;98937.0;;;17.72;74.15
23361;BME280;11852;50.082;18.554;2023-09-30T05:05:11;98933.5;;;17.76;74.17
23361;BME280;11852;50.082;18.554;2023-09-30T05:06:16;98932.99;;;17.72;74.31
23361;BME280;11852;50.082;18.554;2023-09-30T05:07:34;98936.0;;;17.68;74.22
23361;BME280;11852;50.082;18.554;2023-09-30T05:08:39;98939.0;;;17.84;73.89
23361;BME280;11852;50.082;18.554;2023-09-30T05:09:44;98940.0;;;17.86;73.42
23361;BME280;11852;50.082;18.554;2023-09-30T05:10:49;98941.5;;;17.87;73.8
23361;BME280;11852;50.082;18.554;2023-09-30T05:11:54;98939.0;;;17.89;74.0
23361;BME280;11852;50.082;18.554;2023-09-30T05:13:01;98939.0;;;17.9;74.04
23361;BME280;11852;50.082;18.554;2023-09-30T05:14:06;98940.5;;;17.83;74.09
23361;BME280;11852;50.082;18.554;2023-09-30T05:15:12;98940.5;;;17.76;74.11
23361;BME280;11852;50.082;18.554;2023-09-30T05:16:17;98941.0;;;17.8;74.07
23361;BME280;11852;50.082;18.554;2023-09-30T05:17:21;98946.5;;;17.83;73.99
23361;BME280;11852;50.082;18.554;2023-09-30T05:18:34;98949.0;;;17.83;74.01
23361;BME280;11852;50.082;18.554;2023-09-30T05:19:39;98950.5;;;17.86;73.89
23361;BME280;11852;50.082;18.554;2023-09-30T05:20:44;98957.0;;;17.87;74.04
23361;BME280;11852;50.082;18.554;2023-09-30T05:21:49;98957.5;;;17.9;73.93
23361;BME280;11852;50.082;18.554;2023-09-30T05:22:54;98963.5;;;17.93;74.07
23361;BME280;11852;50.082;18.554;2023-09-30T05:24:13;98964.0;;;17.92;73.87
23361;BME280;11852;50.082;18.554;2023-09-30T05:25:18;98969.0;;;17.97;73.81
23361;BME280;11852;50.082;18.554;2023-09-30T05:26:23;98967.5;;;17.86;73.96
23361;BME280;11852;50.082;18.554;2023-09-30T05:27:28;98969.49;;;17.86;74.06
23361;BME280;11852;50.082;18.554;2023-09-30T05:28:33;98972.0;;;17.92;74.04
23361;BME280;11852;50.082;18.554;2023-09-30T05:29:44;98976.5;;;17.92;74.07
23361;BME280;11852;50.082;18.554;2023-09-30T05:30:49;98974.5;;;17.9;74.1
23361;BME280;11852;50.082;18.554;2023-09-30T05:31:54;98974.0;;;17.88;74.19
23361;BME280;11852;50.082;18.554;2023-09-30T05:33:00;98975.0;;;17.92;74.11
23361;BME280;11852;50.082;18.554;2023-09-30T05:34:04;98976.0;;;17.93;74.11
23361;BME280;11852;50.082;18.554;2023-09-30T05:35:24;98975.5;;;17.94;74.15
23361;BME280;11852;50.082;18.554;2023-09-30T05:36:29;98977.5;;;17.98;74.03
23361;BME280;11852;50.082;18.554;2023-09-30T05:37:35;98982.5;;;17.99;74.21
23361;BME280;11852;50.082;18.554;2023-09-30T05:38:39;98986.5;;;18.0;74.22
23361;BME280;11852;50.082;18.554;2023-09-30T05:39:44;98991.0;;;18.03;73.99
23361;BME280;11852;50.082;18.554;2023-09-30T05:40:52;98992.5;;;18.05;74.24
23361;BME280;11852;50.082;18.554;2023-09-30T05:42:00;98992.0;;;18.07;74.31
23361;BME280;11852;50.082;18.554;2023-09-30T05:43:05;98995.0;;;18.08;74.21
23361;BME280;11852;50.082;18.554;2023-09-30T05:44:10;98998.5;;;18.08;74.34
23361;BME280;11852;50.082;18.554;2023-09-30T05:45:15;98998.0;;;18.08;74.52
23361;BME280;11852;50.082;18.554;2023-09-30T05:46:32;98998.0;;;18.08;74.69
23361;BME280;11852;50.082;18.554;2023-09-30T05:47:36;99002.0;;;18.1;74.53
23361;BME280;11852;50.082;18.554;2023-09-30T05:48:41;99001.0;;;18.1;74.6
23361;BME280;11852;50.082;18.554;2023-09-30T05:49:46;99000.5;;;18.11;74.5